Silver Lake, Kansas
Current Conditions -  °F | °C
As of 7:53 PM on Saturday 22 Nov 2014 (Local Time) from KTOP Reporting Station
Overcast Overcast  
Wind Chill: 57°   Ceiling: 1500
Heat Index: 57°   Visibility: 10mi
Dew Point: 52°   Wind: 17mph
Humidity: 83%   Direction: 170°S
Pressure: 29.71"   Gusts: 25mph
Location:  39.1°N, 95.86°W
Report Text: KTOP 230153Z AUTO 17015G22KT 10SM OVC015 14/11 A2971 RMK AO2 SLP059 T01390111
Loading
Personal Weather Stations






























Interactive Weather Map New forecast layout! Learn more

10-Day Weather Forecast

Advertisements
Track Severe Weather on mobile